Moretown, Vermont
Current Conditions -  °F | °C
As of 1:51 AM on Sunday 21 Dec 2014 (Local Time) from KMPV Reporting Station
Overcast Overcast  
Wind Chill: 14°   Ceiling: 2900
Heat Index: 14°   Visibility: 9mi
Dew Point: 12°   Wind: 0mph
Humidity: 92%   Direction: NA
Pressure: 30.3"   Gusts: NA
Location:  44.25°N, 72.76°W
Report Text: KMPV 210651Z AUTO 00000KT 9SM OVC029 M10/M11 A3030 RMK AO2 SLP283 T11001111
Loading
Personal Weather Stations






























Interactive Weather Map New forecast layout! Learn more

10-Day Weather Forecast

Advertisements
Track Severe Weather on mobile